createdAt,value
2023-10-23T00:00:04.188Z,23.67
2023-10-23T00:00:34.327Z,23.68
2023-10-23T00:01:04.380Z,23.67
2023-10-23T00:01:34.397Z,23.64
2023-10-23T00:02:04.392Z,23.65
2023-10-23T00:02:34.541Z,23.67
2023-10-23T00:03:04.613Z,23.65
2023-10-23T00:03:34.642Z,23.68
2023-10-23T00:04:04.730Z,23.65
2023-10-23T00:04:34.761Z,23.65
2023-10-23T00:05:04.895Z,23.67
2023-10-23T00:05:34.828Z,23.67
2023-10-23T00:06:04.829Z,23.67
2023-10-23T00:06:35.016Z,23.67
2023-10-23T00:07:05.066Z,23.67
2023-10-23T00:07:34.949Z,23.67
2023-10-23T00:08:35.029Z,23.68
2023-10-23T00:09:05.042Z,23.65
2023-10-23T00:09:35.111Z,23.68
2023-10-23T00:10:05.136Z,23.68
2023-10-23T00:10:35.129Z,23.67
2023-10-23T00:11:05.126Z,23.65
2023-10-23T00:11:35.131Z,23.65
2023-10-23T00:12:05.144Z,23.64
2023-10-23T00:12:35.210Z,23.64
2023-10-23T00:13:05.258Z,23.67
2023-10-23T00:13:35.241Z,23.65
2023-10-23T00:14:35.420Z,23.64
2023-10-23T00:15:05.401Z,23.64
2023-10-23T00:15:35.421Z,23.67
2023-10-23T00:16:05.464Z,23.64
2023-10-23T00:16:35.538Z,23.64
2023-10-23T00:17:05.588Z,23.62
2023-10-23T00:17:35.621Z,23.64
2023-10-23T00:18:05.683Z,23.65
2023-10-23T00:18:35.734Z,23.65
2023-10-23T00:19:05.686Z,23.64
2023-10-23T00:19:35.698Z,23.62
2023-10-23T00:20:05.709Z,23.65
2023-10-23T00:20:35.714Z,23.65
2023-10-23T00:21:05.746Z,23.64
2023-10-23T00:21:35.783Z,23.62
2023-10-23T00:22:05.800Z,23.64
2023-10-23T00:22:35.811Z,23.64
2023-10-23T00:23:05.816Z,23.61
2023-10-23T00:23:35.812Z,23.62
2023-10-23T00:24:05.812Z,23.64
2023-10-23T00:24:35.913Z,23.62
2023-10-23T00:25:05.833Z,23.64
2023-10-23T00:25:35.844Z,23.65
2023-10-23T00:26:05.855Z,23.64
2023-10-23T00:26:35.879Z,23.64
2023-10-23T00:27:05.871Z,23.64
2023-10-23T00:27:35.905Z,23.65
2023-10-23T00:28:05.918Z,23.64
2023-10-23T00:28:35.944Z,23.64
2023-10-23T00:29:05.923Z,23.67
2023-10-23T00:30:06.034Z,23.67
2023-10-23T00:30:36.079Z,23.65
2023-10-23T00:31:06.180Z,23.67
2023-10-23T00:31:36.150Z,23.65
2023-10-23T00:32:06.139Z,23.67
2023-10-23T00:32:36.219Z,23.67
2023-10-23T00:33:36.321Z,23.65
2023-10-23T00:34:06.358Z,23.67
2023-10-23T00:34:36.515Z,23.65
2023-10-23T00:35:06.439Z,23.68
2023-10-23T00:35:36.468Z,23.67
2023-10-23T00:36:06.461Z,23.65
2023-10-23T00:36:36.555Z,23.65
2023-10-23T00:37:06.512Z,23.67
2023-10-23T00:37:36.518Z,23.67
2023-10-23T00:38:06.521Z,23.64
2023-10-23T00:38:36.523Z,23.64
2023-10-23T00:39:06.534Z,23.62
2023-10-23T00:39:36.588Z,23.64
2023-10-23T00:40:06.585Z,23.64
2023-10-23T00:40:36.588Z,23.62
2023-10-23T00:41:06.593Z,23.65
2023-10-23T00:41:36.609Z,23.64
2023-10-23T00:42:06.606Z,23.65
2023-10-23T00:43:06.682Z,23.64
2023-10-23T00:43:36.686Z,23.64
2023-10-23T00:44:06.820Z,23.62
2023-10-23T00:44:36.933Z,23.62
2023-10-23T00:45:36.919Z,23.64
2023-10-23T00:46:06.958Z,23.65
2023-10-23T00:46:37.004Z,23.64
2023-10-23T00:47:07.017Z,23.65
2023-10-23T00:47:37.165Z,23.64
2023-10-23T00:48:07.243Z,23.62
2023-10-23T00:48:37.304Z,23.62
2023-10-23T00:49:07.338Z,23.65
2023-10-23T00:49:37.351Z,23.60
2023-10-23T00:50:37.440Z,23.61
2023-10-23T00:51:07.476Z,23.62
2023-10-23T00:51:37.501Z,23.62
2023-10-23T00:52:07.494Z,23.65
2023-10-23T00:52:37.607Z,23.62
2023-10-23T00:53:07.657Z,23.64
2023-10-23T00:53:37.666Z,23.64
2023-10-23T00:54:07.686Z,23.64
2023-10-23T00:54:37.942Z,23.62
2023-10-23T00:55:07.772Z,23.65
2023-10-23T00:55:37.765Z,23.62
2023-10-23T00:56:07.774Z,23.64
2023-10-23T00:56:37.874Z,23.64
2023-10-23T00:57:07.962Z,23.64
2023-10-23T00:57:38.078Z,23.64
2023-10-23T00:58:08.072Z,23.64
2023-10-23T00:58:38.154Z,23.62
2023-10-23T00:59:08.233Z,23.62
2023-10-23T00:59:38.351Z,23.61
2023-10-23T01:00:08.412Z,23.64
2023-10-23T01:00:38.687Z,23.62
2023-10-23T01:01:08.634Z,23.61
2023-10-23T01:01:38.719Z,23.60
2023-10-23T01:02:08.747Z,23.62
2023-10-23T01:02:38.789Z,23.62
2023-10-23T01:03:08.862Z,23.60
2023-10-23T01:03:38.882Z,23.64
2023-10-23T01:04:08.961Z,23.61
2023-10-23T01:04:39.252Z,23.62
2023-10-23T01:05:09.122Z,23.62
2023-10-23T01:05:39.202Z,23.61
2023-10-23T01:06:09.286Z,23.62
2023-10-23T01:06:39.441Z,23.61
2023-10-23T01:07:09.460Z,23.62
2023-10-23T01:07:39.464Z,23.62
2023-10-23T01:08:09.485Z,23.62
2023-10-23T01:08:39.483Z,23.60
2023-10-23T01:09:09.505Z,23.62
2023-10-23T01:09:39.558Z,23.60
2023-10-23T01:10:09.578Z,23.60
2023-10-23T01:10:39.596Z,23.61
2023-10-23T01:11:09.650Z,23.60
2023-10-23T01:11:39.674Z,23.61
2023-10-23T01:12:09.676Z,23.61
2023-10-23T01:12:39.730Z,23.61
2023-10-23T01:13:09.779Z,23.62
2023-10-23T01:13:39.832Z,23.62
2023-10-23T01:14:09.862Z,23.60
2023-10-23T01:14:39.982Z,23.61
2023-10-23T01:15:09.916Z,23.64
2023-10-23T01:15:39.917Z,23.60
2023-10-23T01:16:10.025Z,23.61
2023-10-23T01:16:40.073Z,23.60
2023-10-23T01:17:10.091Z,23.61
2023-10-23T01:17:40.100Z,23.60
2023-10-23T01:18:10.098Z,23.61
2023-10-23T01:18:40.161Z,23.60
2023-10-23T01:19:10.162Z,23.61
2023-10-23T01:19:40.206Z,23.58
2023-10-23T01:20:10.212Z,23.58
2023-10-23T01:20:40.219Z,23.58
2023-10-23T01:21:10.228Z,23.60
2023-10-23T01:21:40.269Z,23.57
2023-10-23T01:22:10.289Z,23.58
2023-10-23T01:22:40.301Z,23.60
2023-10-23T01:23:10.306Z,23.56
2023-10-23T01:23:40.306Z,23.60
2023-10-23T01:24:10.308Z,23.61
2023-10-23T01:24:40.397Z,23.60
2023-10-23T01:25:40.389Z,23.60
2023-10-23T01:26:10.401Z,23.60
2023-10-23T01:26:40.419Z,23.61
2023-10-23T01:27:10.421Z,23.60
2023-10-23T01:27:40.495Z,23.58
2023-10-23T01:28:10.520Z,23.58
2023-10-23T01:28:40.519Z,23.58
2023-10-23T01:29:10.532Z,23.58
2023-10-23T01:29:40.529Z,23.61
2023-10-23T01:30:10.548Z,23.58
2023-10-23T01:30:40.644Z,23.58
2023-10-23T01:31:10.668Z,23.60
2023-10-23T01:31:40.613Z,23.60
2023-10-23T01:32:10.635Z,23.57
2023-10-23T01:32:40.700Z,23.57
2023-10-23T01:33:10.697Z,23.60
2023-10-23T01:33:41.020Z,23.58
2023-10-23T01:34:10.809Z,23.57
2023-10-23T01:35:10.903Z,23.56
2023-10-23T01:35:40.922Z,23.57
2023-10-23T01:36:10.920Z,23.57
2023-10-23T01:36:40.955Z,23.60
2023-10-23T01:37:10.952Z,23.56
2023-10-23T01:37:40.961Z,23.57
2023-10-23T01:38:10.969Z,23.57
2023-10-23T01:39:11.059Z,23.56
2023-10-23T01:39:41.115Z,23.58
2023-10-23T01:40:11.109Z,23.53
2023-10-23T01:40:41.110Z,23.56
2023-10-23T01:41:11.122Z,23.56
2023-10-23T01:41:41.127Z,23.57
2023-10-23T01:42:11.163Z,23.58
2023-10-23T01:42:41.216Z,23.56
2023-10-23T01:43:11.210Z,23.57
2023-10-23T01:43:41.208Z,23.58
2023-10-23T01:44:11.221Z,23.58
2023-10-23T01:44:41.229Z,23.57
2023-10-23T01:45:11.225Z,23.58
2023-10-23T01:45:41.242Z,23.57
2023-10-23T01:46:11.300Z,23.56
2023-10-23T01:46:41.294Z,23.56
2023-10-23T01:47:11.338Z,23.56
2023-10-23T01:47:41.386Z,23.56
2023-10-23T01:48:11.393Z,23.56
2023-10-23T01:48:41.478Z,23.57
2023-10-23T01:49:11.474Z,23.57
2023-10-23T01:49:41.479Z,23.54
2023-10-23T01:50:41.956Z,23.53
2023-10-23T01:51:11.662Z,23.56
2023-10-23T01:51:41.745Z,23.54
2023-10-23T01:52:11.691Z,23.54
2023-10-23T01:52:41.698Z,23.53
2023-10-23T01:53:11.805Z,23.56
2023-10-23T01:53:41.792Z,23.54
2023-10-23T01:54:42.098Z,23.53
2023-10-23T01:55:11.921Z,23.56
2023-10-23T01:55:41.930Z,23.53
2023-10-23T01:56:11.953Z,23.54
2023-10-23T01:57:11.971Z,23.53
2023-10-23T01:57:42.170Z,23.53
2023-10-23T01:58:12.059Z,23.54
2023-10-23T01:58:42.140Z,23.54
2023-10-23T01:59:12.220Z,23.51
2023-10-23T01:59:42.290Z,23.53
2023-10-23T02:00:12.376Z,23.56
2023-10-23T02:00:42.481Z,23.56
2023-10-23T02:01:12.617Z,23.54
2023-10-23T02:01:42.576Z,23.53
2023-10-23T02:02:12.514Z,23.50
2023-10-23T02:02:42.667Z,23.50
2023-10-23T02:03:12.726Z,23.53
2023-10-23T02:03:42.822Z,23.53
2023-10-23T02:04:13.019Z,23.51
2023-10-23T02:04:42.814Z,23.54
2023-10-23T02:05:12.904Z,23.54
2023-10-23T02:05:43.231Z,23.57
2023-10-23T02:06:13.077Z,23.54
2023-10-23T02:06:43.112Z,23.54
2023-10-23T02:07:13.105Z,23.54
2023-10-23T02:07:43.100Z,23.51
2023-10-23T02:08:13.098Z,23.54
2023-10-23T02:09:13.184Z,23.54
2023-10-23T02:09:43.241Z,23.51
2023-10-23T02:10:13.250Z,23.53
2023-10-23T02:10:43.254Z,23.51
2023-10-23T02:11:13.263Z,23.54
2023-10-23T02:11:43.255Z,23.51
2023-10-23T02:12:13.255Z,23.53
2023-10-23T02:12:43.313Z,23.50
2023-10-23T02:13:13.307Z,23.49
2023-10-23T02:13:43.298Z,23.49
2023-10-23T02:14:43.377Z,23.51
2023-10-23T02:15:13.412Z,23.50
2023-10-23T02:15:43.449Z,23.51
2023-10-23T02:16:13.497Z,23.51
2023-10-23T02:16:43.540Z,23.50
2023-10-23T02:17:13.713Z,23.51
2023-10-23T02:17:43.732Z,23.49
2023-10-23T02:18:13.829Z,23.51
2023-10-23T02:18:43.922Z,23.51
2023-10-23T02:19:13.998Z,23.53
2023-10-23T02:19:44.051Z,23.50
2023-10-23T02:20:14.064Z,23.50
2023-10-23T02:20:44.067Z,23.51
2023-10-23T02:21:14.069Z,23.50
2023-10-23T02:21:44.117Z,23.51
2023-10-23T02:22:14.122Z,23.51
2023-10-23T02:22:44.124Z,23.53
2023-10-23T02:23:15.251Z,23.51
2023-10-23T02:23:55.772Z,23.53
2023-10-23T02:24:14.296Z,23.53
2023-10-23T02:24:44.366Z,23.53
2023-10-23T02:25:14.299Z,23.51
2023-10-23T02:26:14.381Z,23.53
2023-10-23T02:26:44.389Z,23.51
2023-10-23T02:27:14.394Z,23.53
2023-10-23T02:27:44.444Z,23.53
2023-10-23T02:28:14.520Z,23.51
2023-10-23T02:28:44.542Z,23.50
2023-10-23T02:29:14.563Z,23.50
2023-10-23T02:29:44.570Z,23.50
2023-10-23T02:30:14.577Z,23.51
2023-10-23T02:30:44.723Z,23.50
2023-10-23T02:31:14.726Z,23.50
2023-10-23T02:31:44.755Z,23.50
2023-10-23T02:32:14.752Z,23.51
2023-10-23T02:32:44.798Z,23.50
2023-10-23T02:33:14.809Z,23.50
2023-10-23T02:33:44.840Z,23.49
2023-10-23T02:34:14.891Z,23.50
2023-10-23T02:34:44.938Z,23.50
2023-10-23T02:35:14.980Z,23.49
2023-10-23T02:35:44.983Z,23.49
2023-10-23T02:36:14.991Z,23.50
2023-10-23T02:37:15.069Z,23.46
2023-10-23T02:37:45.068Z,23.47
2023-10-23T02:38:15.088Z,23.49
2023-10-23T02:38:45.097Z,23.46
2023-10-23T02:39:15.100Z,23.46
2023-10-23T02:40:15.189Z,23.47
2023-10-23T02:40:45.187Z,23.46
2023-10-23T02:41:15.298Z,23.47
2023-10-23T02:41:45.314Z,23.47
2023-10-23T02:42:15.324Z,23.46
2023-10-23T02:42:45.386Z,23.46
2023-10-23T02:43:15.411Z,23.47
2023-10-23T02:43:45.419Z,23.46
2023-10-23T02:44:15.426Z,23.44
2023-10-23T02:44:45.422Z,23.47
2023-10-23T02:45:15.441Z,23.46
2023-10-23T02:45:45.491Z,23.47
2023-10-23T02:46:15.534Z,23.46
2023-10-23T02:46:45.629Z,23.44
2023-10-23T02:47:15.635Z,23.44
2023-10-23T02:47:45.667Z,23.47
2023-10-23T02:48:15.684Z,23.46
2023-10-23T02:48:45.707Z,23.46
2023-10-23T02:49:15.708Z,23.44
2023-10-23T02:49:45.710Z,23.47
2023-10-23T02:50:15.716Z,23.47
2023-10-23T02:50:45.727Z,23.47
2023-10-23T02:51:15.733Z,23.47
2023-10-23T02:52:15.810Z,23.44
2023-10-23T02:52:45.814Z,23.47
2023-10-23T02:53:15.819Z,23.46
2023-10-23T02:53:45.830Z,23.43
2023-10-23T02:54:15.825Z,23.43
2023-10-23T02:55:15.923Z,23.43
2023-10-23T02:55:45.925Z,23.44
2023-10-23T02:56:15.941Z,23.43
2023-10-23T02:56:45.943Z,23.40
2023-10-23T02:57:16.036Z,23.44
2023-10-23T02:57:46.129Z,23.44
2023-10-23T02:58:16.210Z,23.43
2023-10-23T02:58:46.292Z,23.44
2023-10-23T02:59:16.370Z,23.44
2023-10-23T02:59:46.449Z,23.46
2023-10-23T03:00:16.540Z,23.43
2023-10-23T03:00:46.663Z,23.46
2023-10-23T03:01:16.718Z,23.43
2023-10-23T03:01:46.719Z,23.42
2023-10-23T03:02:16.807Z,23.42
2023-10-23T03:02:46.943Z,23.43
2023-10-23T03:03:17.105Z,23.43
2023-10-23T03:03:47.261Z,23.42
2023-10-23T03:04:17.114Z,23.40
2023-10-23T03:04:47.102Z,23.43
2023-10-23T03:05:17.178Z,23.40
2023-10-23T03:05:47.261Z,23.43
2023-10-23T03:06:17.371Z,23.43
2023-10-23T03:06:47.408Z,23.43
2023-10-23T03:07:17.431Z,23.43
2023-10-23T03:07:47.429Z,23.42
2023-10-23T03:08:17.438Z,23.42
2023-10-23T03:08:47.446Z,23.43
2023-10-23T03:09:47.543Z,23.40
2023-10-23T03:10:17.588Z,23.40
2023-10-23T03:10:47.594Z,23.39
2023-10-23T03:11:17.613Z,23.40
2023-10-23T03:11:47.609Z,23.39
2023-10-23T03:12:17.641Z,23.42
2023-10-23T03:12:47.688Z,23.39
2023-10-23T03:13:17.693Z,23.40
2023-10-23T03:13:47.703Z,23.39
2023-10-23T03:14:17.708Z,23.40
2023-10-23T03:14:47.703Z,23.42
2023-10-23T03:15:47.813Z,23.40
2023-10-23T03:16:17.876Z,23.42
2023-10-23T03:16:47.960Z,23.39
2023-10-23T03:17:17.968Z,23.40
2023-10-23T03:17:48.007Z,23.39
2023-10-23T03:18:17.999Z,23.39
2023-10-23T03:18:48.014Z,23.40
2023-10-23T03:19:18.058Z,23.39
2023-10-23T03:19:48.034Z,23.40
2023-10-23T03:20:48.136Z,23.42
2023-10-23T03:21:18.149Z,23.42
2023-10-23T03:21:48.297Z,23.39
2023-10-23T03:22:18.219Z,23.39
2023-10-23T03:22:48.218Z,23.40
2023-10-23T03:23:18.228Z,23.37
2023-10-23T03:23:48.277Z,23.39
2023-10-23T03:24:18.315Z,23.39
2023-10-23T03:24:48.360Z,23.39
2023-10-23T03:25:18.394Z,23.39
2023-10-23T03:25:48.394Z,23.39
2023-10-23T03:26:18.407Z,23.39
2023-10-23T03:26:48.401Z,23.36
2023-10-23T03:27:18.405Z,23.37
2023-10-23T03:28:18.481Z,23.39
2023-10-23T03:28:48.482Z,23.37
2023-10-23T03:29:18.494Z,23.36
2023-10-23T03:29:48.490Z,23.39
2023-10-23T03:30:18.521Z,23.37
2023-10-23T03:30:48.524Z,23.36
2023-10-23T03:31:18.575Z,23.39
2023-10-23T03:31:48.591Z,23.37
2023-10-23T03:32:18.631Z,23.34
2023-10-23T03:32:48.637Z,23.37
2023-10-23T03:33:18.649Z,23.36
2023-10-23T03:33:48.651Z,23.34
2023-10-23T03:34:18.648Z,23.36
2023-10-23T03:34:48.668Z,23.34
2023-10-23T03:35:18.660Z,23.36
2023-10-23T03:35:48.661Z,23.34
2023-10-23T03:36:48.806Z,23.34
2023-10-23T03:37:18.816Z,23.36
2023-10-23T03:37:48.828Z,23.36
2023-10-23T03:38:18.819Z,23.36
2023-10-23T03:38:48.845Z,23.37
2023-10-23T03:39:18.834Z,23.33
2023-10-23T03:39:48.920Z,23.34
2023-10-23T03:40:18.939Z,23.33
2023-10-23T03:40:48.940Z,23.34
2023-10-23T03:41:18.986Z,23.36
2023-10-23T03:41:48.979Z,23.37
2023-10-23T03:42:18.985Z,23.37
2023-10-23T03:43:19.084Z,23.36
2023-10-23T03:43:49.089Z,23.36
2023-10-23T03:44:19.088Z,23.40
2023-10-23T03:44:49.105Z,23.39
2023-10-23T03:45:19.186Z,23.40
2023-10-23T03:45:49.243Z,23.42
2023-10-23T03:46:19.397Z,23.39
2023-10-23T03:46:49.380Z,23.39
2023-10-23T03:47:19.394Z,23.40
2023-10-23T03:47:49.432Z,23.42
2023-10-23T03:48:19.691Z,23.42
2023-10-23T03:48:49.520Z,23.43
2023-10-23T03:49:19.525Z,23.40
2023-10-23T03:49:49.541Z,23.39
2023-10-23T03:50:19.568Z,23.39
2023-10-23T03:50:49.542Z,23.39
2023-10-23T03:51:49.639Z,23.40
2023-10-23T03:52:19.662Z,23.39
2023-10-23T03:52:49.671Z,23.39
2023-10-23T03:53:19.683Z,23.40
2023-10-23T03:53:49.681Z,23.39
2023-10-23T03:54:49.816Z,23.36
2023-10-23T03:55:19.838Z,23.40
2023-10-23T03:55:49.863Z,23.34
2023-10-23T03:56:19.876Z,23.37
2023-10-23T03:56:49.950Z,23.39
2023-10-23T03:57:20.078Z,23.39
2023-10-23T03:57:50.067Z,23.36
2023-10-23T03:58:20.148Z,23.37
2023-10-23T03:58:50.220Z,23.37
2023-10-23T03:59:20.301Z,23.37
2023-10-23T03:59:50.391Z,23.36
2023-10-23T04:00:20.600Z,23.39
2023-10-23T04:00:50.606Z,23.36
2023-10-23T04:01:20.734Z,23.37
2023-10-23T04:01:50.742Z,23.37
2023-10-23T04:02:20.737Z,23.37
2023-10-23T04:02:50.874Z,23.36
2023-10-23T04:03:20.838Z,23.39
2023-10-23T04:03:50.960Z,23.36
2023-10-23T04:04:21.048Z,23.36
2023-10-23T04:04:51.041Z,23.34
2023-10-23T04:05:21.110Z,23.36
2023-10-23T04:05:51.208Z,23.36
2023-10-23T04:06:21.359Z,23.34
2023-10-23T04:06:51.327Z,23.34
2023-10-23T04:07:21.524Z,23.36
2023-10-23T04:07:51.416Z,23.33
2023-10-23T04:08:51.495Z,23.34
2023-10-23T04:09:21.540Z,23.34
2023-10-23T04:09:51.565Z,23.34
2023-10-23T04:10:21.577Z,23.34
2023-10-23T04:10:51.584Z,23.37
2023-10-23T04:11:21.577Z,23.32
2023-10-23T04:11:51.581Z,23.30
2023-10-23T04:12:21.592Z,23.34
2023-10-23T04:12:51.628Z,23.34
2023-10-23T04:13:21.684Z,23.36
2023-10-23T04:13:51.685Z,23.36
2023-10-23T04:14:21.681Z,23.36
2023-10-23T04:14:51.751Z,23.37
2023-10-23T04:15:21.812Z,23.34
2023-10-23T04:15:51.860Z,23.37
2023-10-23T04:16:21.894Z,23.33
2023-10-23T04:16:51.926Z,23.33
2023-10-23T04:17:21.963Z,23.33
2023-10-23T04:17:51.992Z,23.32
2023-10-23T04:18:22.042Z,23.33
2023-10-23T04:18:52.076Z,23.37
2023-10-23T04:19:22.078Z,23.34
2023-10-23T04:19:52.109Z,23.36
2023-10-23T04:20:22.110Z,23.34
2023-10-23T04:20:52.124Z,23.36
2023-10-23T04:21:22.230Z,23.34
2023-10-23T04:21:52.228Z,23.37
2023-10-23T04:22:22.254Z,23.36
2023-10-23T04:22:52.258Z,23.37
2023-10-23T04:23:22.265Z,23.36
2023-10-23T04:23:52.271Z,23.34
2023-10-23T04:24:22.297Z,23.36
2023-10-23T04:24:52.305Z,23.39
2023-10-23T04:25:22.303Z,23.37
2023-10-23T04:25:52.314Z,23.42
2023-10-23T04:26:22.318Z,23.40
2023-10-23T04:26:52.317Z,23.39
2023-10-23T04:27:52.441Z,23.43
2023-10-23T04:28:22.495Z,23.47
2023-10-23T04:28:52.495Z,23.44
2023-10-23T04:29:22.524Z,23.46
2023-10-23T04:29:52.521Z,23.47
2023-10-23T04:30:52.679Z,23.53
2023-10-23T04:31:22.723Z,23.50
2023-10-23T04:31:52.735Z,23.51
2023-10-23T04:32:22.735Z,23.54
2023-10-23T04:32:52.789Z,23.56
2023-10-23T04:33:22.926Z,23.56
2023-10-23T04:33:53.064Z,23.57
2023-10-23T04:34:22.998Z,23.57
2023-10-23T04:34:53.098Z,23.60
2023-10-23T04:35:23.097Z,23.60
2023-10-23T04:35:53.090Z,23.58
2023-10-23T04:36:23.121Z,23.61
2023-10-23T04:36:53.252Z,23.61
2023-10-23T04:37:23.140Z,23.58
2023-10-23T04:37:53.176Z,23.64
2023-10-23T04:38:23.207Z,23.61
2023-10-23T04:38:53.206Z,23.67
2023-10-23T04:39:23.207Z,23.65
2023-10-23T04:39:53.229Z,23.65
2023-10-23T04:40:23.274Z,23.67
2023-10-23T04:40:53.278Z,23.70
2023-10-23T04:41:23.278Z,23.67
2023-10-23T04:41:53.286Z,23.67
2023-10-23T04:42:23.322Z,23.70
2023-10-23T04:42:53.371Z,23.70
2023-10-23T04:43:23.372Z,23.67
2023-10-23T04:43:53.379Z,23.70
2023-10-23T04:44:23.516Z,23.70
2023-10-23T04:44:53.512Z,23.70
2023-10-23T04:45:23.533Z,23.70
2023-10-23T04:45:53.712Z,23.71
2023-10-23T04:46:23.763Z,23.74
2023-10-23T04:46:53.697Z,23.74
2023-10-23T04:47:23.717Z,23.71
2023-10-23T04:47:53.730Z,23.71
2023-10-23T04:48:23.763Z,23.73
2023-10-23T04:48:53.765Z,23.74
2023-10-23T04:49:23.751Z,23.74
2023-10-23T04:49:53.758Z,23.71
2023-10-23T04:50:23.856Z,23.74
2023-10-23T04:50:53.863Z,23.71
2023-10-23T04:51:23.934Z,23.73
2023-10-23T04:51:53.978Z,23.71
2023-10-23T04:52:23.990Z,23.71
2023-10-23T04:52:53.974Z,23.71
2023-10-23T04:53:54.058Z,23.64
2023-10-23T04:54:24.074Z,23.60
2023-10-23T04:54:54.080Z,23.64
2023-10-23T04:55:24.172Z,23.64
2023-10-23T04:55:54.176Z,23.64
2023-10-23T04:56:24.176Z,23.67
2023-10-23T04:56:54.251Z,23.71
2023-10-23T04:57:24.433Z,23.71
2023-10-23T04:57:54.491Z,23.70
2023-10-23T04:58:24.697Z,23.68
2023-10-23T04:58:54.552Z,23.70
2023-10-23T04:59:24.656Z,23.68
2023-10-23T04:59:54.723Z,23.70
2023-10-23T05:00:24.834Z,23.71
2023-10-23T05:00:54.924Z,23.73
2023-10-23T05:01:25.041Z,23.73
2023-10-23T05:01:55.068Z,23.74
2023-10-23T05:02:25.014Z,23.74
2023-10-23T05:02:55.104Z,23.74
2023-10-23T05:03:25.349Z,23.76
2023-10-23T05:03:55.272Z,23.77
2023-10-23T05:04:25.408Z,23.78
2023-10-23T05:04:55.369Z,23.80
2023-10-23T05:05:25.385Z,23.78
2023-10-23T05:05:55.465Z,23.83
2023-10-23T05:06:25.600Z,23.81
2023-10-23T05:06:55.682Z,23.78
2023-10-23T05:07:25.690Z,23.81
2023-10-23T05:07:55.714Z,23.80
2023-10-23T05:08:25.703Z,23.80
2023-10-23T05:09:25.829Z,23.77
2023-10-23T05:09:55.852Z,23.71
2023-10-23T05:10:25.857Z,23.78
2023-10-23T05:10:55.867Z,23.78
2023-10-23T05:11:25.920Z,23.71
2023-10-23T05:11:55.962Z,23.68
2023-10-23T05:12:25.990Z,23.68
2023-10-23T05:12:56.021Z,23.68
2023-10-23T05:13:26.014Z,23.73
2023-10-23T05:13:56.001Z,23.77
2023-10-23T05:14:56.101Z,23.77
2023-10-23T05:15:26.290Z,23.80
2023-10-23T05:15:56.354Z,23.81
2023-10-23T05:16:26.358Z,23.78
2023-10-23T05:16:56.397Z,23.78
2023-10-23T05:17:26.465Z,23.83
2023-10-23T05:17:56.480Z,23.78
2023-10-23T05:18:26.559Z,23.76
2023-10-23T05:18:56.628Z,23.78
2023-10-23T05:19:26.633Z,23.78
2023-10-23T05:19:56.654Z,23.77
2023-10-23T05:20:26.665Z,23.80
2023-10-23T05:20:56.672Z,23.78
2023-10-23T05:21:26.719Z,23.78
2023-10-23T05:21:56.775Z,23.78
2023-10-23T05:22:26.757Z,23.80
2023-10-23T05:22:56.766Z,23.80
2023-10-23T05:23:26.798Z,23.77
2023-10-23T05:23:56.780Z,23.74
2023-10-23T05:24:56.915Z,23.77
2023-10-23T05:25:26.925Z,23.77
2023-10-23T05:25:56.919Z,23.77
2023-10-23T05:26:26.936Z,23.74
2023-10-23T05:26:56.936Z,23.74
2023-10-23T05:27:26.969Z,23.76
2023-10-23T05:27:57.017Z,23.77
2023-10-23T05:28:27.052Z,23.74
2023-10-23T05:28:57.058Z,23.74
2023-10-23T05:29:27.075Z,23.73
2023-10-23T05:29:57.091Z,23.67
2023-10-23T05:30:27.105Z,23.73
2023-10-23T05:30:57.174Z,23.77
2023-10-23T05:31:27.222Z,23.73
2023-10-23T05:31:57.255Z,23.71
2023-10-23T05:32:27.279Z,23.71
2023-10-23T05:32:57.299Z,23.73
2023-10-23T05:33:27.298Z,23.74
2023-10-23T05:33:57.382Z,23.74
2023-10-23T05:34:27.417Z,23.71
2023-10-23T05:34:57.405Z,23.73
2023-10-23T05:35:27.406Z,23.68
2023-10-23T05:35:57.414Z,23.64
2023-10-23T05:36:27.478Z,23.61
2023-10-23T05:36:57.501Z,23.64
2023-10-23T05:37:27.492Z,23.68
2023-10-23T05:37:57.486Z,23.61
2023-10-23T05:38:27.491Z,23.64
2023-10-23T05:38:57.538Z,23.64
2023-10-23T05:39:27.566Z,23.64
2023-10-23T05:39:57.624Z,23.62
2023-10-23T05:40:27.645Z,23.64
2023-10-23T05:40:57.648Z,23.62
2023-10-23T05:41:27.647Z,23.64
2023-10-23T05:41:57.652Z,23.61
2023-10-23T05:42:27.686Z,23.60
2023-10-23T05:42:57.727Z,23.60
2023-10-23T05:43:27.776Z,23.62
2023-10-23T05:43:57.789Z,23.64
2023-10-23T05:44:29.455Z,23.68
2023-10-23T05:44:57.881Z,23.74
2023-10-23T05:45:27.974Z,23.76
2023-10-23T05:45:58.184Z,23.77
2023-10-23T05:46:28.116Z,23.77
2023-10-23T05:46:58.165Z,23.76
2023-10-23T05:47:28.204Z,23.76
2023-10-23T05:47:58.239Z,23.71
2023-10-23T05:48:28.280Z,23.71
2023-10-23T05:48:58.330Z,23.74
2023-10-23T05:49:28.350Z,23.71
2023-10-23T05:49:58.354Z,23.68
2023-10-23T05:50:28.356Z,23.61
2023-10-23T05:51:28.468Z,23.60
2023-10-23T05:51:58.519Z,23.58
2023-10-23T05:52:28.546Z,23.54
2023-10-23T05:52:58.549Z,23.57
2023-10-23T05:53:28.553Z,23.58
2023-10-23T05:53:58.557Z,23.58
2023-10-23T05:54:28.654Z,23.61
2023-10-23T05:55:00.416Z,23.61
2023-10-23T05:55:28.660Z,23.61
2023-10-23T05:55:58.659Z,23.58
2023-10-23T05:56:28.663Z,23.57
2023-10-23T05:56:58.758Z,23.54
2023-10-23T05:57:28.904Z,23.56
2023-10-23T05:57:58.904Z,23.57
2023-10-23T05:58:28.870Z,23.57
2023-10-23T05:58:58.958Z,23.57
2023-10-23T05:59:29.038Z,23.60
2023-10-23T05:59:59.121Z,23.65
2023-10-23T06:00:29.253Z,23.65
2023-10-23T06:00:59.244Z,23.68
2023-10-23T06:01:29.239Z,23.67
2023-10-23T06:01:59.331Z,23.68
2023-10-23T06:02:29.476Z,23.67
2023-10-23T06:02:59.477Z,23.65
2023-10-23T06:03:29.679Z,23.64
2023-10-23T06:03:59.619Z,23.67
2023-10-23T06:04:29.714Z,23.70
2023-10-23T06:04:59.696Z,23.68
2023-10-23T06:05:29.766Z,23.68
2023-10-23T06:05:59.839Z,23.73
2023-10-23T06:06:30.052Z,23.77
2023-10-23T06:07:00.059Z,23.78
2023-10-23T06:07:30.099Z,23.78
2023-10-23T06:08:00.071Z,23.76
2023-10-23T06:08:30.094Z,23.74
2023-10-23T06:09:00.080Z,23.80
2023-10-23T06:10:00.384Z,23.67
2023-10-23T06:10:30.185Z,23.68
2023-10-23T06:11:00.209Z,23.62
2023-10-23T06:11:30.217Z,23.70
2023-10-23T06:12:00.227Z,23.68
2023-10-23T06:12:30.240Z,23.68
2023-10-23T06:13:00.328Z,23.68
2023-10-23T06:13:30.289Z,23.65
2023-10-23T06:14:01.078Z,23.65
2023-10-23T06:14:30.387Z,23.62
2023-10-23T06:15:30.534Z,23.70
2023-10-23T06:16:00.621Z,23.71
2023-10-23T06:16:30.685Z,23.71
2023-10-23T06:17:00.603Z,23.71
2023-10-23T06:17:30.669Z,23.71
2023-10-23T06:18:00.712Z,23.70
2023-10-23T06:18:30.777Z,23.70
2023-10-23T06:19:00.932Z,23.73
2023-10-23T06:19:30.858Z,23.73
2023-10-23T06:20:00.862Z,23.71
2023-10-23T06:20:30.880Z,23.68
2023-10-23T06:21:00.885Z,23.71
2023-10-23T06:21:30.944Z,23.71
2023-10-23T06:22:01.017Z,23.74
2023-10-23T06:22:31.038Z,23.71
2023-10-23T06:23:01.064Z,23.68
2023-10-23T06:23:31.066Z,23.70
2023-10-23T06:24:01.091Z,23.71
2023-10-23T06:24:31.097Z,23.68
2023-10-23T06:25:01.188Z,23.73
2023-10-23T06:25:31.309Z,23.68
2023-10-23T06:26:01.291Z,23.73
2023-10-23T06:27:01.415Z,23.71
2023-10-23T06:27:31.470Z,23.71
2023-10-23T06:28:01.484Z,23.70
2023-10-23T06:28:31.484Z,23.73
2023-10-23T06:29:01.485Z,23.73
2023-10-23T06:29:31.495Z,23.73
2023-10-23T06:30:01.519Z,23.71
2023-10-23T06:31:01.643Z,23.77
2023-10-23T06:31:31.704Z,23.78
2023-10-23T06:32:03.824Z,23.84
2023-10-23T06:32:31.846Z,23.81
2023-10-23T06:33:01.878Z,23.85
2023-10-23T06:33:31.970Z,23.87
2023-10-23T06:34:02.011Z,23.88
2023-10-23T06:34:32.007Z,23.84
2023-10-23T06:35:02.059Z,23.84
2023-10-23T06:35:32.057Z,23.81
2023-10-23T06:36:02.060Z,23.85
2023-10-23T06:36:32.135Z,23.87
2023-10-23T06:37:02.208Z,23.89
2023-10-23T06:37:32.236Z,23.91
2023-10-23T06:38:02.325Z,23.91
2023-10-23T06:38:32.361Z,23.92
2023-10-23T06:39:02.405Z,23.92
2023-10-23T06:39:32.413Z,23.92
2023-10-23T06:40:02.465Z,23.91
2023-10-23T06:40:32.455Z,23.94
2023-10-23T06:41:02.488Z,23.94
2023-10-23T06:41:32.477Z,23.95
2023-10-23T06:42:32.587Z,24.02
2023-10-23T06:43:02.592Z,23.98
2023-10-23T06:43:32.588Z,23.99
2023-10-23T06:44:02.601Z,23.98
2023-10-23T06:44:32.632Z,24.02
2023-10-23T06:45:02.669Z,24.02
2023-10-23T06:45:47.078Z,24.08
2023-10-23T06:46:03.284Z,24.06
2023-10-23T06:46:32.852Z,24.11
2023-10-23T06:47:02.872Z,24.08